Time;durP1;ratioP1;P1;durP2;ratioP2;P2;SDS_P1;SDS_P2;PMS_P1;PMS_P2;Temp;Humidity;BMP_temperature;BMP_pressure;BME280_temperature;BME280_humidity;BME280_pressure;Samples;Min_cycle;Max_cycle;Signal;HPM_P1;HPM_P2
2022/11/29 00:00:33;;;;;;;;;;;;;;;14.22;75.50;101129.19;1261194;23;665;-71
2022/11/29 00:01:23;;;;;;;;;;;;;;;14.21;74.95;101116.75;1261333;23;649;-71
2022/11/29 00:02:14;;;;;;;;;;;;;;;14.21;75.27;101119.44;1261233;23;656;-71
2022/11/29 00:03:04;;;;;;;;;;;;;;;14.21;75.36;101122.13;1261291;23;634;-71
2022/11/29 00:03:55;;;;;;;;;;;;;;;14.21;75.29;101115.91;1261248;23;660;-71
2022/11/29 00:04:45;;;;;;;;;;;;;;;14.21;75.33;101122.13;1254867;23;669;-71
2022/11/29 00:05:36;;;;;;;;;;;;;;;14.21;75.34;101119.44;1254963;23;772;-71
2022/11/29 00:06:26;;;;;;;;;;;;;;;14.21;75.35;101122.13;1261163;23;634;-71
2022/11/29 00:07:17;;;;;;;;;;;;;;;14.21;74.94;101119.44;1261279;23;869;-71
2022/11/29 00:08:07;;;;;;;;;;;;;;;14.22;74.89;101122.97;1261209;23;692;-71
2022/11/29 00:08:57;;;;;;;;;;;;;;;14.22;75.33;101129.19;1261163;23;961;-71
2022/11/29 00:09:48;;;;;;;;;;;;;;;14.22;75.64;101125.66;1262066;23;645;-71
2022/11/29 00:10:38;;;;;;;;;;;;;;;14.21;75.44;101131.97;1262194;23;618;-71
2022/11/29 00:12:38;;;;;;;;;;;;;;;14.22;75.33;101128.34;1262006;23;681;-71
2022/11/29 00:13:28;;;;;;;;;;;;;;;14.23;74.97;101128.22;1261232;23;669;-71
2022/11/29 00:14:19;;;;;;;;;;;;;;;14.22;75.43;101131.88;1262063;23;661;-71
2022/11/29 00:15:09;;;;;;;;;;;;;;;14.22;74.99;101131.88;1261187;23;1885;-71
2022/11/29 00:16:00;;;;;;;;;;;;;;;14.22;74.91;101139.06;1262131;23;669;-71
2022/11/29 00:16:50;;;;;;;;;;;;;;;14.22;75.36;101137.22;1261999;23;692;-71
2022/11/29 00:17:41;;;;;;;;;;;;;;;14.24;75.08;101137.13;1261296;23;652;-71
2022/11/29 00:18:31;;;;;;;;;;;;;;;14.22;74.94;101137.22;1261320;23;661;-71
2022/11/29 00:19:22;;;;;;;;;;;;;;;14.22;74.86;101139.91;1261168;23;658;-72
2022/11/29 00:20:12;;;;;;;;;;;;;;;14.22;74.97;101139.06;1262112;23;633;-71
2022/11/29 00:21:02;;;;;;;;;;;;;;;14.21;74.80;101143.56;1261179;23;649;-71
2022/11/29 00:21:53;;;;;;;;;;;;;;;14.22;75.52;101134.56;1261270;23;681;-71
2022/11/29 00:22:43;;;;;;;;;;;;;;;14.22;75.21;101139.06;1261100;23;656;-71
2022/11/29 00:23:34;;;;;;;;;;;;;;;14.20;75.12;101141.00;1261840;23;672;-71
2022/11/29 00:24:24;;;;;;;;;;;;;;;14.21;74.88;101140.03;1256360;23;677;-71
2022/11/29 00:25:15;;;;;;;;;;;;;;;14.18;74.93;101141.09;1255103;23;662;-71
2022/11/29 00:26:05;;;;;;;;;;;;;;;14.17;75.04;101139.41;1261033;23;693;-71
2022/11/29 00:26:56;;;;;;;;;;;;;;;14.18;75.45;101141.09;1261199;23;677;-71
2022/11/29 00:27:46;;;;;;;;;;;;;;;14.19;75.07;101140.13;1261145;23;630;-71
2022/11/29 00:28:36;;;;;;;;;;;;;;;14.20;75.35;101141.84;1260959;23;589;-71
2022/11/29 00:29:27;;;;;;;;;;;;;;;14.20;75.11;101141.00;1260751;23;859;-71
2022/11/29 00:30:18;;;;;;;;;;;;;;;14.18;74.98;101141.09;1256594;23;633;-71
2022/11/29 00:31:08;;;;;;;;;;;;;;;14.18;75.58;101142.94;1254959;23;638;-72
2022/11/29 00:31:58;;;;;;;;;;;;;;;14.18;75.12;101142.94;1254794;23;677;-71
2022/11/29 00:32:49;;;;;;;;;;;;;;;14.18;75.52;101138.44;1254227;23;697;-72
2022/11/29 00:33:39;;;;;;;;;;;;;;;14.20;75.41;101139.16;1260386;23;618;-71
2022/11/29 00:34:30;;;;;;;;;;;;;;;14.21;75.24;101146.25;1261213;23;665;-71
2022/11/29 00:35:20;;;;;;;;;;;;;;;14.22;74.96;101145.28;1261976;23;657;-71
2022/11/29 00:36:11;;;;;;;;;;;;;;;14.22;74.97;101139.91;1261195;23;646;-71
2022/11/29 00:37:01;;;;;;;;;;;;;;;14.21;75.59;101143.56;1261323;23;747;-71
2022/11/29 00:37:51;;;;;;;;;;;;;;;14.22;75.49;101145.28;1256621;23;617;-71
2022/11/29 00:38:42;;;;;;;;;;;;;;;14.21;75.51;101142.72;1254999;23;704;-71
2022/11/29 00:39:32;;;;;;;;;;;;;;;14.22;75.02;101139.06;1261109;23;657;-71
2022/11/29 00:40:23;;;;;;;;;;;;;;;14.21;75.07;101138.19;1256547;23;649;-71
2022/11/29 00:41:13;;;;;;;;;;;;;;;14.22;75.31;101145.28;1248980;23;669;-71
2022/11/29 00:42:04;;;;;;;;;;;;;;;14.22;75.34;101141.75;1247179;23;643;-71
2022/11/29 00:42:54;;;;;;;;;;;;;;;14.21;74.93;101142.72;1253325;23;658;-71
2022/11/29 00:43:44;;;;;;;;;;;;;;;14.20;75.55;101141.84;1260843;23;615;-71
2022/11/29 00:44:35;;;;;;;;;;;;;;;14.20;75.58;101141.84;1261629;23;629;-71
2022/11/29 00:45:25;;;;;;;;;;;;;;;14.20;75.46;101141.84;1262660;23;602;-71
2022/11/29 00:46:16;;;;;;;;;;;;;;;14.21;75.01;101142.72;1262335;23;602;-72
2022/11/29 00:47:06;;;;;;;;;;;;;;;14.21;75.53;101142.72;1261496;23;1205;-71
2022/11/29 00:47:57;;;;;;;;;;;;;;;14.21;75.49;101143.56;1261614;23;639;-71
2022/11/29 00:48:47;;;;;;;;;;;;;;;14.21;75.56;101142.72;1261533;23;630;-71
2022/11/29 00:49:37;;;;;;;;;;;;;;;14.21;75.42;101143.56;1261555;23;724;-71
2022/11/29 00:50:28;;;;;;;;;;;;;;;14.20;75.16;101147.22;1261718;23;680;-71
2022/11/29 00:51:18;;;;;;;;;;;;;;;14.21;74.97;101148.91;1261712;23;677;-71
2022/11/29 00:52:09;;;;;;;;;;;;;;;14.20;75.28;101144.53;1262456;23;706;-71
2022/11/29 00:52:59;;;;;;;;;;;;;;;14.19;75.13;101140.13;1261612;23;654;-71
2022/11/29 00:53:49;;;;;;;;;;;;;;;14.19;75.52;101155.38;1262521;23;669;-71
2022/11/29 00:54:40;;;;;;;;;;;;;;;14.20;75.14;101141.00;1261487;23;646;-71
2022/11/29 00:55:30;;;;;;;;;;;;;;;14.21;75.05;101148.91;1262734;23;708;-71
2022/11/29 00:56:21;;;;;;;;;;;;;;;14.20;75.61;101143.66;1262527;23;668;-71
2022/11/29 00:57:11;;;;;;;;;;;;;;;14.19;75.62;101145.50;1261740;23;514;-71
2022/11/29 00:58:02;;;;;;;;;;;;;;;14.18;75.18;101149.16;1260889;23;630;-72
2022/11/29 00:58:52;;;;;;;;;;;;;;;14.19;75.22;101139.28;1261729;23;669;-71
2022/11/29 00:59:43;;;;;;;;;;;;;;;14.22;75.69;101142.59;1261635;23;638;-71
2022/11/29 01:00:33;;;;;;;;;;;;;;;14.21;75.25;101138.19;1261450;23;701;-71
2022/11/29 01:01:23;;;;;;;;;;;;;;;14.20;75.25;101149.88;1261714;23;652;-71
2022/11/29 01:02:14;;;;;;;;;;;;;;;14.21;75.28;101140.03;1261536;23;1052;-71
2022/11/29 01:03:04;;;;;;;;;;;;;;;14.22;75.72;101141.75;1262471;23;653;-71
2022/11/29 01:03:55;;;;;;;;;;;;;;;14.22;75.28;101145.28;1261543;23;630;-71
2022/11/29 01:04:45;;;;;;;;;;;;;;;14.24;75.12;101156.75;1261653;23;622;-71
2022/11/29 01:05:35;;;;;;;;;;;;;;;14.25;75.45;101149.56;1261527;23;633;-71
2022/11/29 01:06:26;;;;;;;;;;;;;;;14.22;75.13;101147.94;1262391;23;658;-72
2022/11/29 01:07:16;;;;;;;;;;;;;;;14.23;75.26;101157.72;1261537;23;743;-71
2022/11/29 01:08:07;;;;;;;;;;;;;;;14.17;74.24;101149.25;1261682;23;642;-71
2022/11/29 01:08:57;;;;;;;;;;;;;;;14.10;75.07;101151.56;1262528;23;673;-71
2022/11/29 01:09:48;;;;;;;;;;;;;;;14.13;75.55;101150.50;1261524;23;723;-71
2022/11/29 01:10:38;;;;;;;;;;;;;;;14.14;75.34;101152.19;1261728;23;696;-71
2022/11/29 01:11:28;;;;;;;;;;;;;;;14.15;75.11;101151.22;1261478;23;592;-71
2022/11/29 01:12:19;;;;;;;;;;;;;;;14.15;75.62;101154.72;1261487;23;710;-71
2022/11/29 01:13:09;;;;;;;;;;;;;;;14.16;75.09;101148.41;1261716;23;664;-71
2022/11/29 01:14:00;;;;;;;;;;;;;;;14.19;75.41;101156.22;1261702;23;618;-71
2022/11/29 01:14:50;;;;;;;;;;;;;;;14.19;75.28;101155.38;1261469;23;1892;-71
2022/11/29 01:15:41;;;;;;;;;;;;;;;14.18;75.66;101159.88;1262430;23;647;-71
2022/11/29 01:16:31;;;;;;;;;;;;;;;14.19;75.42;101160.72;1261590;23;646;-71
2022/11/29 01:17:22;;;;;;;;;;;;;;;14.18;74.95;101156.34;1261618;23;622;-71
2022/11/29 01:18:12;;;;;;;;;;;;;;;14.18;75.17;101159.88;1261518;23;642;-71
2022/11/29 01:19:02;;;;;;;;;;;;;;;14.20;75.36;101167.78;1261567;23;614;-71
2022/11/29 01:19:53;;;;;;;;;;;;;;;14.20;75.46;101163.28;1262282;23;634;-71
2022/11/29 01:20:43;;;;;;;;;;;;;;;14.19;75.13;101166.09;1261673;23;642;-71
2022/11/29 01:21:34;;;;;;;;;;;;;;;14.15;74.52;101170.00;1261542;23;618;-72
2022/11/29 01:22:24;;;;;;;;;;;;;;;14.12;75.22;101171.06;1262380;23;661;-71
2022/11/29 01:23:15;;;;;;;;;;;;;;;14.12;75.52;101171.06;1261428;23;665;-71
2022/11/29 01:24:05;;;;;;;;;;;;;;;14.14;75.26;101173.63;1261537;23;701;-71
2022/11/29 01:24:55;;;;;;;;;;;;;;;14.15;75.21;101176.19;1261598;23;650;-71
2022/11/29 01:25:46;;;;;;;;;;;;;;;14.17;75.00;101176.06;1262485;23;626;-71
2022/11/29 01:26:36;;;;;;;;;;;;;;;14.14;75.57;101174.50;1261627;23;674;-71
2022/11/29 01:27:27;;;;;;;;;;;;;;;14.15;75.41;101173.50;1261872;23;634;-71
2022/11/29 01:28:17;;;;;;;;;;;;;;;14.15;75.28;101165.44;1261633;23;658;-71
2022/11/29 01:29:07;;;;;;;;;;;;;;;14.16;75.61;101171.66;1262534;23;669;-71
2022/11/29 01:29:58;;;;;;;;;;;;;;;14.16;75.66;101169.00;1261402;23;665;-71
2022/11/29 01:30:48;;;;;;;;;;;;;;;14.17;75.47;101171.56;1261583;23;681;-72
2022/11/29 01:31:39;;;;;;;;;;;;;;;14.18;75.72;101175.09;1261659;23;630;-71
2022/11/29 01:32:29;;;;;;;;;;;;;;;14.17;75.50;101168.88;1262310;23;680;-71
2022/11/29 01:33:20;;;;;;;;;;;;;;;14.15;75.17;101170.81;1262482;23;631;-70
2022/11/29 01:34:10;;;;;;;;;;;;;;;14.15;75.00;101170.81;1262239;23;680;-72
2022/11/29 01:35:01;;;;;;;;;;;;;;;14.17;75.20;101168.03;1261496;23;1885;-71
2022/11/29 01:35:51;;;;;;;;;;;;;;;14.14;75.45;101173.63;1261504;23;630;-71
2022/11/29 01:36:41;;;;;;;;;;;;;;;14.15;75.64;101172.66;1262534;23;649;-71
2022/11/29 01:37:32;;;;;;;;;;;;;;;14.15;74.99;101170.81;1261567;23;673;-71
2022/11/29 01:38:22;;;;;;;;;;;;;;;14.16;75.32;101169.00;1261611;23;630;-71
2022/11/29 01:39:13;;;;;;;;;;;;;;;14.15;75.27;101173.50;1261567;23;657;-71
2022/11/29 01:40:03;;;;;;;;;;;;;;;14.15;75.19;101168.13;1262351;23;673;-71
2022/11/29 01:40:54;;;;;;;;;;;;;;;14.15;75.46;101170.81;1261669;23;657;-72
2022/11/29 01:41:44;;;;;;;;;;;;;;;14.16;75.67;101177.03;1260885;23;708;-71
2022/11/29 01:42:34;;;;;;;;;;;;;;;14.15;75.42;101170.81;1261511;23;658;-72
2022/11/29 01:43:25;;;;;;;;;;;;;;;14.16;75.17;101171.66;1262456;23;618;-71
2022/11/29 01:44:15;;;;;;;;;;;;;;;14.15;75.19;101175.34;1261551;23;630;-71
2022/11/29 01:45:06;;;;;;;;;;;;;;;14.15;75.70;101178.03;1262333;23;651;-71
2022/11/29 01:45:57;;;;;;;;;;;;;;;14.17;75.29;101176.91;1261700;23;636;-71
2022/11/29 01:46:47;;;;;;;;;;;;;;;14.18;75.12;101180.44;1261404;23;637;-71
2022/11/29 01:47:38;;;;;;;;;;;;;;;14.20;75.47;101178.53;1261394;23;665;-71
2022/11/29 01:48:28;;;;;;;;;;;;;;;14.19;75.47;101176.81;1261294;23;696;-71
2022/11/29 01:49:18;;;;;;;;;;;;;;;14.19;75.17;101180.34;1261626;23;548;-71
2022/11/29 01:50:09;;;;;;;;;;;;;;;14.18;75.72;101178.63;1261397;23;658;-71
2022/11/29 01:51:00;;;;;;;;;;;;;;;14.18;75.72;101184.00;1261550;23;623;-71
2022/11/29 01:51:50;;;;;;;;;;;;;;;14.17;75.37;101176.91;1261495;23;681;-71
2022/11/29 01:52:40;;;;;;;;;;;;;;;14.18;75.72;101177.78;1261457;23;657;-71
2022/11/29 01:53:31;;;;;;;;;;;;;;;14.19;75.32;101176.81;1262145;23;652;-71
2022/11/29 01:54:21;;;;;;;;;;;;;;;14.18;75.33;101181.31;1261563;23;791;-71
2022/11/29 01:55:12;;;;;;;;;;;;;;;14.19;75.62;101183.03;1261444;23;1905;-72
2022/11/29 01:56:02;;;;;;;;;;;;;;;14.18;75.32;101183.13;1260971;23;697;-71
2022/11/29 01:56:53;;;;;;;;;;;;;;;14.18;76.05;101185.81;1261560;23;677;-71
2022/11/29 01:57:43;;;;;;;;;;;;;;;14.18;75.44;101181.31;1256863;23;771;-71
2022/11/29 01:58:34;;;;;;;;;;;;;;;14.18;75.72;101183.13;1255114;23;641;-72
2022/11/29 01:59:24;;;;;;;;;;;;;;;14.17;75.12;101179.59;1261392;23;636;-72
2022/11/29 02:00:15;;;;;;;;;;;;;;;14.18;75.48;101186.66;1261389;23;674;-72
2022/11/29 02:01:05;;;;;;;;;;;;;;;14.16;75.41;101180.56;1262413;23;653;-71
2022/11/29 02:01:55;;;;;;;;;;;;;;;14.18;75.35;101180.44;1261575;23;680;-72
2022/11/29 02:02:46;;;;;;;;;;;;;;;14.17;75.87;101184.09;1261513;23;713;-72
2022/11/29 02:03:36;;;;;;;;;;;;;;;14.17;75.76;101176.06;1256703;23;653;-72
2022/11/29 02:04:27;;;;;;;;;;;;;;;14.19;75.35;101182.16;1255225;23;833;-72
2022/11/29 02:05:17;;;;;;;;;;;;;;;14.19;75.13;101185.69;1261262;23;641;-72
2022/11/29 02:06:08;;;;;;;;;;;;;;;14.17;75.50;101182.28;1262491;23;633;-72
2022/11/29 02:06:58;;;;;;;;;;;;;;;14.18;76.06;101192.03;1262240;23;617;-71
2022/11/29 02:07:48;;;;;;;;;;;;;;;14.20;75.89;101184.72;1261522;23;692;-71
2022/11/29 02:08:39;;;;;;;;;;;;;;;14.22;75.92;101188.16;1261416;23;653;-71
2022/11/29 02:09:29;;;;;;;;;;;;;;;14.22;75.96;101187.31;1261473;23;634;-71
2022/11/29 02:10:20;;;;;;;;;;;;;;;14.21;75.82;101186.44;1262392;23;630;-71
2022/11/29 02:11:10;;;;;;;;;;;;;;;14.21;75.79;101182.91;1261408;23;673;-72
2022/11/29 02:12:00;;;;;;;;;;;;;;;14.20;75.27;101189.25;1261500;23;614;-72
2022/11/29 02:12:51;;;;;;;;;;;;;;;14.18;75.91;101186.66;1261471;23;673;-71
2022/11/29 02:13:41;;;;;;;;;;;;;;;14.18;75.76;101189.34;1261537;23;677;-72
2022/11/29 02:14:32;;;;;;;;;;;;;;;14.19;75.82;101191.06;1261462;23;635;-71
2022/11/29 02:15:22;;;;;;;;;;;;;;;14.19;75.42;101196.44;1261387;23;1960;-71
2022/11/29 02:16:13;;;;;;;;;;;;;;;14.19;75.25;101188.38;1261425;23;606;-71
2022/11/29 02:17:03;;;;;;;;;;;;;;;14.20;75.31;101194.59;1262217;23;656;-71
2022/11/29 02:17:53;;;;;;;;;;;;;;;14.18;75.55;101189.34;1261431;23;677;-71
2022/11/29 02:18:44;;;;;;;;;;;;;;;14.19;75.83;101188.38;1261560;23;606;-71
2022/11/29 02:19:34;;;;;;;;;;;;;;;14.18;75.81;101186.66;1262285;23;621;-71
2022/11/29 02:20:25;;;;;;;;;;;;;;;14.18;75.55;101191.19;1261470;23;673;-71
2022/11/29 02:21:15;;;;;;;;;;;;;;;14.16;75.61;101190.44;1261514;23;712;-71
2022/11/29 02:22:06;;;;;;;;;;;;;;;14.17;75.30;101190.31;1261378;23;739;-71
2022/11/29 02:22:56;;;;;;;;;;;;;;;14.16;75.74;101187.75;1261423;23;630;-71
2022/11/29 02:23:46;;;;;;;;;;;;;;;14.17;75.85;101189.47;1261492;23;615;-71
2022/11/29 02:24:37;;;;;;;;;;;;;;;14.16;75.67;101193.13;1261475;23;700;-71
2022/11/29 02:25:27;;;;;;;;;;;;;;;14.15;75.76;101186.06;1260912;23;697;-71
2022/11/29 02:26:18;;;;;;;;;;;;;;;14.15;75.35;101197.63;1260657;23;641;-70
2022/11/29 02:27:08;;;;;;;;;;;;;;;14.15;75.36;101188.75;1261554;23;680;-70
2022/11/29 02:27:59;;;;;;;;;;;;;;;14.15;75.79;101189.56;1256921;23;688;-70
2022/11/29 02:28:49;;;;;;;;;;;;;;;14.16;75.93;101185.06;1255092;23;622;-71
2022/11/29 02:29:40;;;;;;;;;;;;;;;14.17;75.70;101195.69;1261372;23;622;-71
2022/11/29 02:30:30;;;;;;;;;;;;;;;14.15;75.82;101189.56;1261406;23;622;-71
2022/11/29 02:31:20;;;;;;;;;;;;;;;14.15;75.52;101191.44;1261514;23;732;-71
2022/11/29 02:32:11;;;;;;;;;;;;;;;14.15;75.46;101192.25;1261399;23;638;-72
2022/11/29 02:33:01;;;;;;;;;;;;;;;14.15;75.11;101192.25;1261382;23;682;-72
2022/11/29 02:33:52;;;;;;;;;;;;;;;14.14;75.89;101193.25;1256913;23;634;-72
2022/11/29 02:34:42;;;;;;;;;;;;;;;14.14;75.60;101189.72;1254999;23;673;-72
2022/11/29 02:35:33;;;;;;;;;;;;;;;14.13;75.58;101188.88;1261249;23;681;-72
2022/11/29 02:36:23;;;;;;;;;;;;;;;14.13;75.45;101183.50;1261409;23;677;-72
2022/11/29 02:37:14;;;;;;;;;;;;;;;14.14;75.74;101193.25;1261480;23;614;-72
2022/11/29 02:38:04;;;;;;;;;;;;;;;14.14;75.95;101193.25;1261316;23;804;-72
2022/11/29 02:38:54;;;;;;;;;;;;;;;14.15;75.67;101196.78;1261526;23;759;-72
2022/11/29 02:39:45;;;;;;;;;;;;;;;14.15;75.88;101192.25;1261748;23;639;-72
2022/11/29 02:40:35;;;;;;;;;;;;;;;14.16;75.66;101198.47;1261279;23;642;-72
2022/11/29 02:41:26;;;;;;;;;;;;;;;14.16;75.39;101203.84;1261408;23;811;-72
2022/11/29 02:42:16;;;;;;;;;;;;;;;14.17;75.37;101194.81;1261525;23;705;-71
2022/11/29 02:43:07;;;;;;;;;;;;;;;14.15;75.55;101197.63;1261265;23;638;-72
2022/11/29 02:43:57;;;;;;;;;;;;;;;14.13;75.85;101191.53;1261488;23;654;-71
2022/11/29 02:44:47;;;;;;;;;;;;;;;14.14;75.50;101198.63;1256756;23;655;-72
2022/11/29 02:45:38;;;;;;;;;;;;;;;14.15;75.74;101202.16;1255208;23;681;-72
2022/11/29 02:46:28;;;;;;;;;;;;;;;14.12;75.83;101197.88;1261146;23;697;-72
2022/11/29 02:47:19;;;;;;;;;;;;;;;14.14;75.44;101203.97;1261410;23;661;-72
2022/11/29 02:48:09;;;;;;;;;;;;;;;14.14;75.65;101203.97;1261391;23;650;-72
2022/11/29 02:49:00;;;;;;;;;;;;;;;14.15;75.70;101211.00;1261297;23;658;-71
2022/11/29 02:49:50;;;;;;;;;;;;;;;14.16;75.25;101198.47;1261365;23;654;-71
2022/11/29 02:50:40;;;;;;;;;;;;;;;14.15;75.25;101204.84;1262223;23;636;-72
2022/11/29 02:51:31;;;;;;;;;;;;;;;14.15;75.21;101208.34;1261399;23;672;-71
2022/11/29 02:52:21;;;;;;;;;;;;;;;14.14;75.66;101198.63;1261375;23;636;-71
2022/11/29 02:53:12;;;;;;;;;;;;;;;14.14;75.33;101209.34;1261413;23;658;-72
2022/11/29 02:54:02;;;;;;;;;;;;;;;14.13;75.35;101207.63;1260836;23;685;-71
2022/11/29 02:54:53;;;;;;;;;;;;;;;14.13;75.68;101204.94;1261227;23;666;-71
2022/11/29 02:55:43;;;;;;;;;;;;;;;14.14;75.39;101209.34;1261328;23;665;-72
2022/11/29 02:56:34;;;;;;;;;;;;;;;14.13;75.70;101215.66;1261313;23;673;-71
2022/11/29 02:57:24;;;;;;;;;;;;;;;14.12;75.10;101208.59;1261446;23;665;-71
2022/11/29 02:58:15;;;;;;;;;;;;;;;14.11;75.21;101212.25;1261323;23;745;-71
2022/11/29 02:59:05;;;;;;;;;;;;;;;14.12;75.74;101207.72;1261467;23;614;-71
2022/11/29 02:59:56;;;;;;;;;;;;;;;14.13;75.40;101210.31;1261362;23;709;-71
2022/11/29 03:00:47;;;;;;;;;;;;;;;14.13;75.69;101215.66;1261347;23;657;-71
2022/11/29 03:01:37;;;;;;;;;;;;;;;14.13;75.42;101215.66;1262211;23;657;-72
2022/11/29 03:02:27;;;;;;;;;;;;;;;14.14;75.61;101219.19;1261390;23;634;-71
2022/11/29 03:03:18;;;;;;;;;;;;;;;14.14;75.42;101213.84;1261352;23;650;-72
2022/11/29 03:04:08;;;;;;;;;;;;;;;14.14;75.34;101233.47;1261321;23;673;-72
2022/11/29 03:04:59;;;;;;;;;;;;;;;14.13;75.81;101225.53;1261507;23;721;-71
2022/11/29 03:05:49;;;;;;;;;;;;;;;14.12;75.79;101227.34;1262246;23;653;-71
2022/11/29 03:06:39;;;;;;;;;;;;;;;14.12;75.63;101235.38;1261147;23;657;-71
2022/11/29 03:07:30;;;;;;;;;;;;;;;14.13;75.35;101229.06;1261367;23;618;-71
2022/11/29 03:08:20;;;;;;;;;;;;;;;14.14;75.22;101233.47;1261334;23;626;-71
2022/11/29 03:09:11;;;;;;;;;;;;;;;14.15;75.71;101229.78;1261399;23;665;-72
2022/11/29 03:10:01;;;;;;;;;;;;;;;14.13;75.43;101229.06;1262111;23;643;-72
2022/11/29 03:10:52;;;;;;;;;;;;;;;14.13;75.27;101231.75;1261437;23;751;-71
2022/11/29 03:11:42;;;;;;;;;;;;;;;14.13;75.62;101228.22;1262234;23;661;-72
2022/11/29 03:12:32;;;;;;;;;;;;;;;14.13;74.91;101231.75;1261355;23;636;-71
2022/11/29 03:13:23;;;;;;;;;;;;;;;14.13;75.49;101233.56;1261363;23;658;-71
2022/11/29 03:14:13;;;;;;;;;;;;;;;14.12;75.37;101239.91;1261496;23;674;-71
2022/11/29 03:15:04;;;;;;;;;;;;;;;14.12;75.63;101230.03;1261250;23;1909;-71
2022/11/29 03:15:54;;;;;;;;;;;;;;;14.12;74.94;101239.91;1261195;23;662;-71
2022/11/29 03:16:44;;;;;;;;;;;;;;;14.12;75.16;101238.06;1261278;23;685;-71
2022/11/29 03:17:35;;;;;;;;;;;;;;;14.13;75.60;101231.75;1261396;23;611;-71
2022/11/29 03:18:25;;;;;;;;;;;;;;;14.14;74.99;101238.81;1261326;23;626;-71
2022/11/29 03:19:16;;;;;;;;;;;;;;;14.14;75.18;101241.50;1261396;23;669;-71
2022/11/29 03:20:06;;;;;;;;;;;;;;;14.13;75.29;101239.78;1262124;23;626;-71
2022/11/29 03:20:57;;;;;;;;;;;;;;;14.12;75.64;101242.56;1261321;23;704;-71
2022/11/29 03:21:47;;;;;;;;;;;;;;;14.11;75.69;101238.19;1261386;23;692;-71
2022/11/29 03:22:38;;;;;;;;;;;;;;;14.12;75.86;101239.91;1261351;23;630;-71
2022/11/29 03:23:28;;;;;;;;;;;;;;;14.14;75.31;101244.19;1261300;23;642;-71
2022/11/29 03:24:19;;;;;;;;;;;;;;;14.14;75.42;101243.31;1261277;23;677;-71
2022/11/29 03:25:09;;;;;;;;;;;;;;;14.15;75.29;101239.69;1261378;23;653;-71
2022/11/29 03:26:00;;;;;;;;;;;;;;;14.15;75.57;101243.19;1261350;23;653;-72
2022/11/29 03:26:50;;;;;;;;;;;;;;;14.16;75.59;101249.41;1261309;23;630;-71
2022/11/29 03:27:40;;;;;;;;;;;;;;;14.13;75.58;101242.47;1261384;23;619;-71
2022/11/29 03:28:31;;;;;;;;;;;;;;;14.14;75.34;101241.50;1261319;23;672;-71
2022/11/29 03:29:21;;;;;;;;;;;;;;;14.15;75.70;101248.53;1261316;23;681;-71
2022/11/29 03:30:12;;;;;;;;;;;;;;;14.14;75.28;101249.53;1262135;23;618;-72
2022/11/29 03:31:02;;;;;;;;;;;;;;;14.15;75.58;101240.50;1261269;23;634;-71
2022/11/29 03:31:52;;;;;;;;;;;;;;;14.15;75.79;101243.19;1262127;23;641;-71
2022/11/29 03:32:43;;;;;;;;;;;;;;;14.14;75.69;101244.19;1261434;23;793;-71
2022/11/29 03:33:33;;;;;;;;;;;;;;;14.13;75.80;101236.25;1261250;23;634;-71
2022/11/29 03:34:24;;;;;;;;;;;;;;;14.14;75.78;101244.19;1261232;23;650;-72
2022/11/29 03:35:14;;;;;;;;;;;;;;;14.14;75.84;101240.66;1261153;23;1889;-71
2022/11/29 03:36:04;;;;;;;;;;;;;;;14.13;75.47;101244.28;1262032;23;669;-71
2022/11/29 03:36:55;;;;;;;;;;;;;;;14.12;75.56;101246.13;1262284;23;638;-71
2022/11/29 03:37:45;;;;;;;;;;;;;;;14.13;75.24;101250.50;1260812;23;642;-71
2022/11/29 03:38:36;;;;;;;;;;;;;;;14.12;76.04;101250.63;1261204;23;630;-72
2022/11/29 03:39:26;;;;;;;;;;;;;;;14.14;75.66;101254.03;1261269;23;631;-71
2022/11/29 03:40:17;;;;;;;;;;;;;;;14.13;75.40;101255.00;1262258;23;648;-71
2022/11/29 03:41:07;;;;;;;;;;;;;;;14.13;75.74;101258.53;1261448;23;627;-71
2022/11/29 03:41:58;;;;;;;;;;;;;;;14.12;75.84;101254.16;1261954;23;665;-71
2022/11/29 03:42:48;;;;;;;;;;;;;;;14.15;75.87;101255.75;1262242;23;644;-71
2022/11/29 03:43:38;;;;;;;;;;;;;;;14.17;76.01;101260.00;1261387;23;649;-70
2022/11/29 03:44:29;;;;;;;;;;;;;;;14.21;75.15;101257.97;1261369;23;645;-70
2022/11/29 03:45:20;;;;;;;;;;;;;;;14.23;75.41;101259.56;1261269;23;680;-72
2022/11/29 03:46:10;;;;;;;;;;;;;;;14.25;75.29;101260.31;1261359;23;773;-71
2022/11/29 03:47:01;;;;;;;;;;;;;;;14.29;75.10;101262.78;1261017;23;1081;-71
2022/11/29 03:47:51;;;;;;;;;;;;;;;14.28;75.66;101261.91;1261201;23;638;-72
2022/11/29 03:48:41;;;;;;;;;;;;;;;14.28;75.75;101263.75;1262107;23;653;-71
2022/11/29 03:49:32;;;;;;;;;;;;;;;14.24;75.38;101265.78;1262198;23;622;-71
2022/11/29 03:50:22;;;;;;;;;;;;;;;14.23;75.72;101264.94;1261296;23;700;-71
2022/11/29 03:51:13;;;;;;;;;;;;;;;14.20;75.20;101262.47;1261101;23;614;-72
2022/11/29 03:52:03;;;;;;;;;;;;;;;14.19;75.74;101271.47;1261616;23;613;-71
2022/11/29 03:52:54;;;;;;;;;;;;;;;14.19;75.21;101266.13;1261290;23;628;-72
2022/11/29 03:53:44;;;;;;;;;;;;;;;14.19;75.55;101265.25;1262011;23;653;-72
2022/11/29 03:54:34;;;;;;;;;;;;;;;14.17;75.34;101270.72;1262081;23;673;-72
2022/11/29 03:55:25;;;;;;;;;;;;;;;14.17;75.57;101268.06;1261243;23;1905;-72
2022/11/29 03:56:15;;;;;;;;;;;;;;;14.17;75.42;101269.88;1261409;23;654;-72
2022/11/29 03:57:06;;;;;;;;;;;;;;;14.15;75.52;101261.13;1261156;23;673;-72
2022/11/29 03:57:56;;;;;;;;;;;;;;;14.14;75.37;101265.63;1262228;23;685;-71
2022/11/29 03:58:46;;;;;;;;;;;;;;;14.15;75.79;101269.16;1261373;23;630;-70
2022/11/29 03:59:37;;;;;;;;;;;;;;;14.14;75.90;101267.44;1262042;23;665;-70
2022/11/29 04:00:27;;;;;;;;;;;;;;;14.14;75.26;101273.66;1261217;23;732;-71
2022/11/29 04:01:18;;;;;;;;;;;;;;;14.15;75.35;101271.84;1261261;23;623;-71
2022/11/29 04:02:08;;;;;;;;;;;;;;;14.13;75.43;101266.59;1262212;23;748;-71
2022/11/29 04:02:59;;;;;;;;;;;;;;;14.13;75.31;101268.41;1261257;23;630;-71
2022/11/29 04:03:50;;;;;;;;;;;;;;;14.14;75.79;101270.97;1261212;23;665;-70
2022/11/29 04:04:40;;;;;;;;;;;;;;;14.14;75.69;101270.97;1262148;23;637;-70
2022/11/29 04:05:31;;;;;;;;;;;;;;;14.14;75.35;101281.69;1261295;23;685;-71
2022/11/29 04:06:21;;;;;;;;;;;;;;;14.14;75.45;101273.66;1261284;23;665;-71
2022/11/29 04:07:11;;;;;;;;;;;;;;;14.15;75.79;101278.03;1262049;23;657;-70
2022/11/29 04:08:02;;;;;;;;;;;;;;;14.15;75.94;101280.69;1261281;23;716;-71
2022/11/29 04:08:52;;;;;;;;;;;;;;;14.15;75.34;101275.34;1261244;23;720;-71
2022/11/29 04:09:43;;;;;;;;;;;;;;;14.15;75.67;101278.03;1261251;23;748;-70
2022/11/29 04:10:33;;;;;;;;;;;;;;;14.15;75.64;101272.66;1261158;23;653;-71
2022/11/29 04:11:23;;;;;;;;;;;;;;;14.15;75.18;101272.66;1261217;23;678;-70
2022/11/29 04:12:14;;;;;;;;;;;;;;;14.14;75.66;101278.16;1261218;23;689;-71
2022/11/29 04:13:04;;;;;;;;;;;;;;;14.15;75.73;101279.88;1261284;23;673;-71
2022/11/29 04:13:55;;;;;;;;;;;;;;;14.14;75.79;101275.47;1261268;23;662;-71
2022/11/29 04:14:45;;;;;;;;;;;;;;;14.14;75.39;101281.69;1261117;23;701;-71
2022/11/29 04:15:36;;;;;;;;;;;;;;;14.14;75.09;101273.66;1261291;23;758;-71
2022/11/29 04:16:26;;;;;;;;;;;;;;;14.14;75.09;101280.84;1261196;23;689;-71
2022/11/29 04:17:16;;;;;;;;;;;;;;;14.13;75.37;101282.66;1261234;23;649;-71
2022/11/29 04:18:07;;;;;;;;;;;;;;;14.13;75.60;101279.13;1261951;23;668;-71
2022/11/29 04:18:57;;;;;;;;;;;;;;;14.13;76.03;101277.31;1261195;23;665;-71
2022/11/29 04:19:48;;;;;;;;;;;;;;;14.12;75.70;101278.28;1261278;23;630;-71
2022/11/29 04:20:38;;;;;;;;;;;;;;;14.13;75.46;101285.34;1262110;23;637;-71
2022/11/29 04:21:28;;;;;;;;;;;;;;;14.11;75.41;101279.25;1261236;23;669;-71
2022/11/29 04:22:19;;;;;;;;;;;;;;;14.12;75.35;101286.31;1261171;23;653;-71
2022/11/29 04:23:09;;;;;;;;;;;;;;;14.11;75.47;101292.63;1261142;23;657;-71
2022/11/29 04:24:00;;;;;;;;;;;;;;;14.12;75.49;101285.47;1261147;23;685;-71
2022/11/29 04:24:50;;;;;;;;;;;;;;;14.12;75.68;101285.47;1262145;23;688;-71
2022/11/29 04:25:41;;;;;;;;;;;;;;;14.11;75.90;101287.28;1261227;23;642;-71
2022/11/29 04:26:31;;;;;;;;;;;;;;;14.10;75.34;101290.94;1262101;23;633;-71
2022/11/29 04:27:21;;;;;;;;;;;;;;;14.11;75.11;101284.59;1261225;23;700;-71